sensor_id;sensor_type;location;lat;lon;timestamp;pressure;altitude;pressure_sealevel;temperature;humidity
75401;BME280;63974;47.538;18.972;2023-04-06T00:02:35;100412.50;;;1.15;53.97
75401;BME280;63974;47.538;18.972;2023-04-06T00:05:38;100406.50;;;1.16;53.69
75401;BME280;63974;47.538;18.972;2023-04-06T00:08:42;100405.69;;;1.03;54.50
75401;BME280;63974;47.538;18.972;2023-04-06T00:11:45;100406.53;;;1.04;54.77
75401;BME280;63974;47.538;18.972;2023-04-06T00:14:48;100408.84;;;1.07;54.28
75401;BME280;63974;47.538;18.972;2023-04-06T00:17:51;100407.00;;;1.09;54.36
75401;BME280;63974;47.538;18.972;2023-04-06T00:20:54;100408.53;;;1.11;54.11
75401;BME280;63974;47.538;18.972;2023-04-06T00:23:57;100410.09;;;1.14;53.72
75401;BME280;63974;47.538;18.972;2023-04-06T00:27:00;100402.78;;;1.20;53.33
75401;BME280;63974;47.538;18.972;2023-04-06T00:30:04;100400.78;;;1.13;53.69
75401;BME280;63974;47.538;18.972;2023-04-06T00:33:08;100402.28;;;1.15;53.27
75401;BME280;63974;47.538;18.972;2023-04-06T00:36:11;100402.41;;;1.14;53.34
75401;BME280;63974;47.538;18.972;2023-04-06T00:39:14;100398.31;;;1.11;53.46
75401;BME280;63974;47.538;18.972;2023-04-06T00:42:21;100397.69;;;1.20;53.08
75401;BME280;63974;47.538;18.972;2023-04-06T00:45:28;100398.28;;;1.24;52.64
75401;BME280;63974;47.538;18.972;2023-04-06T00:48:31;100390.50;;;1.25;52.58
75401;BME280;63974;47.538;18.972;2023-04-06T00:51:35;100390.06;;;1.31;52.43
75401;BME280;63974;47.538;18.972;2023-04-06T00:54:38;100380.88;;;1.29;52.22
75401;BME280;63974;47.538;18.972;2023-04-06T00:57:42;100374.22;;;1.26;52.04
75401;BME280;63974;47.538;18.972;2023-04-06T01:00:45;100376.69;;;1.28;51.95
75401;BME280;63974;47.538;18.972;2023-04-06T01:03:52;100380.97;;;1.27;51.98
75401;BME280;63974;47.538;18.972;2023-04-06T01:06:56;100375.06;;;1.27;52.05
75401;BME280;63974;47.538;18.972;2023-04-06T01:10:05;100374.97;;;1.28;51.78
75401;BME280;63974;47.538;18.972;2023-04-06T01:13:10;100383.09;;;1.33;51.95
75401;BME280;63974;47.538;18.972;2023-04-06T01:16:36;100369.56;;;1.20;52.54
75401;BME280;63974;47.538;18.972;2023-04-06T01:19:45;100368.63;;;1.21;52.55
75401;BME280;63974;47.538;18.972;2023-04-06T01:22:56;100363.50;;;1.21;52.77
75401;BME280;63974;47.538;18.972;2023-04-06T01:25:59;100360.72;;;1.24;52.93
75401;BME280;63974;47.538;18.972;2023-04-06T01:29:05;100360.34;;;1.18;52.87
75401;BME280;63974;47.538;18.972;2023-04-06T01:32:08;100356.31;;;1.26;52.83
75401;BME280;63974;47.538;18.972;2023-04-06T01:35:21;100342.72;;;1.49;52.42
75401;BME280;63974;47.538;18.972;2023-04-06T01:38:45;100347.28;;;1.57;52.53
75401;BME280;63974;47.538;18.972;2023-04-06T01:41:51;100342.50;;;1.52;51.83
75401;BME280;63974;47.538;18.972;2023-04-06T01:44:56;100340.56;;;1.32;52.51
75401;BME280;63974;47.538;18.972;2023-04-06T01:47:59;100336.72;;;1.14;52.64
75401;BME280;63974;47.538;18.972;2023-04-06T01:51:03;100333.38;;;1.14;52.56
75401;BME280;63974;47.538;18.972;2023-04-06T01:54:10;100332.38;;;1.27;52.97
75401;BME280;63974;47.538;18.972;2023-04-06T01:57:30;100328.97;;;1.16;53.08
75401;BME280;63974;47.538;18.972;2023-04-06T02:00:43;100341.13;;;1.12;53.10
75401;BME280;63974;47.538;18.972;2023-04-06T02:03:46;100334.41;;;1.11;52.97
75401;BME280;63974;47.538;18.972;2023-04-06T02:06:49;100334.25;;;1.02;53.46
75401;BME280;63974;47.538;18.972;2023-04-06T02:09:57;100329.81;;;1.04;53.83
75401;BME280;63974;47.538;18.972;2023-04-06T02:13:10;100328.56;;;0.86;54.61
75401;BME280;63974;47.538;18.972;2023-04-06T02:16:15;100331.28;;;0.95;57.46
75401;BME280;63974;47.538;18.972;2023-04-06T02:19:20;100338.28;;;0.81;57.61
75401;BME280;63974;47.538;18.972;2023-04-06T02:22:23;100332.59;;;0.65;57.33
75401;BME280;63974;47.538;18.972;2023-04-06T02:25:26;100340.97;;;0.54;57.66
75401;BME280;63974;47.538;18.972;2023-04-06T02:28:30;100337.09;;;0.61;57.15
75401;BME280;63974;47.538;18.972;2023-04-06T02:31:36;100338.72;;;0.62;56.89
75401;BME280;63974;47.538;18.972;2023-04-06T02:34:40;100349.25;;;0.70;56.43
75401;BME280;63974;47.538;18.972;2023-04-06T02:37:43;100344.75;;;0.74;56.35
75401;BME280;63974;47.538;18.972;2023-04-06T02:40:47;100343.69;;;0.76;56.78
75401;BME280;63974;47.538;18.972;2023-04-06T02:43:56;100360.81;;;0.63;56.59
75401;BME280;63974;47.538;18.972;2023-04-06T02:47:09;100351.81;;;0.70;56.21
75401;BME280;63974;47.538;18.972;2023-04-06T02:50:15;100348.03;;;0.63;56.61
75401;BME280;63974;47.538;18.972;2023-04-06T02:53:26;100349.97;;;0.60;57.16
75401;BME280;63974;47.538;18.972;2023-04-06T02:56:30;100349.78;;;0.50;57.75
75401;BME280;63974;47.538;18.972;2023-04-06T02:59:33;100356.34;;;0.42;57.80
75401;BME280;63974;47.538;18.972;2023-04-06T03:02:46;100348.50;;;0.32;57.77
75401;BME280;63974;47.538;18.972;2023-04-06T03:05:51;100359.50;;;0.33;58.27
75401;BME280;63974;47.538;18.972;2023-04-06T03:09:00;100366.34;;;0.20;58.76
75401;BME280;63974;47.538;18.972;2023-04-06T03:12:04;100359.63;;;0.06;59.24
75401;BME280;63974;47.538;18.972;2023-04-06T03:15:22;100355.78;;;-0.13;59.70
75401;BME280;63974;47.538;18.972;2023-04-06T03:18:31;100365.59;;;-0.19;59.85
75401;BME280;63974;47.538;18.972;2023-04-06T03:21:35;100357.13;;;-0.20;60.04
75401;BME280;63974;47.538;18.972;2023-04-06T03:24:38;100365.09;;;-0.24;60.25
75401;BME280;63974;47.538;18.972;2023-04-06T03:27:40;100368.56;;;-0.13;59.85
75401;BME280;63974;47.538;18.972;2023-04-06T03:30:48;100359.19;;;-0.12;59.76
75401;BME280;63974;47.538;18.972;2023-04-06T03:33:56;100363.28;;;-0.10;59.82
75401;BME280;63974;47.538;18.972;2023-04-06T03:37:04;100368.16;;;-0.07;59.46
75401;BME280;63974;47.538;18.972;2023-04-06T03:40:17;100370.50;;;-0.04;59.00
75401;BME280;63974;47.538;18.972;2023-04-06T03:43:21;100383.56;;;-0.21;59.17
75401;BME280;63974;47.538;18.972;2023-04-06T03:46:24;100377.22;;;-0.28;59.29
75401;BME280;63974;47.538;18.972;2023-04-06T03:49:30;100384.84;;;-0.28;59.34
75401;BME280;63974;47.538;18.972;2023-04-06T03:52:35;100376.50;;;-0.30;59.80
75401;BME280;63974;47.538;18.972;2023-04-06T03:55:38;100383.44;;;-0.19;59.51
75401;BME280;63974;47.538;18.972;2023-04-06T03:58:42;100389.88;;;-0.14;58.88
75401;BME280;63974;47.538;18.972;2023-04-06T04:01:47;100384.78;;;-0.14;58.63
75401;BME280;63974;47.538;18.972;2023-04-06T04:04:50;100388.75;;;-0.22;58.98
75401;BME280;63974;47.538;18.972;2023-04-06T04:07:53;100386.56;;;-0.41;59.63
75401;BME280;63974;47.538;18.972;2023-04-06T04:11:01;100396.13;;;-0.44;59.81
75401;BME280;63974;47.538;18.972;2023-04-06T04:14:04;100397.03;;;-0.19;60.53
75401;BME280;63974;47.538;18.972;2023-04-06T04:17:07;100394.84;;;-0.37;62.00
75401;BME280;63974;47.538;18.972;2023-04-06T04:20:10;100398.25;;;-0.51;61.26
75401;BME280;63974;47.538;18.972;2023-04-06T04:23:13;100401.88;;;-0.41;61.45
75401;BME280;63974;47.538;18.972;2023-04-06T04:26:16;100400.63;;;-0.48;61.90
75401;BME280;63974;47.538;18.972;2023-04-06T04:29:21;100399.72;;;-0.47;62.18
75401;BME280;63974;47.538;18.972;2023-04-06T04:32:32;100400.31;;;-0.43;61.93
75401;BME280;63974;47.538;18.972;2023-04-06T04:35:37;100405.47;;;-0.57;62.24
75401;BME280;63974;47.538;18.972;2023-04-06T04:38:41;100412.34;;;-0.45;61.80
75401;BME280;63974;47.538;18.972;2023-04-06T04:41:45;100400.44;;;-0.45;61.69
75401;BME280;63974;47.538;18.972;2023-04-06T04:44:48;100408.59;;;-0.40;61.89
75401;BME280;63974;47.538;18.972;2023-04-06T04:48:01;100411.34;;;-0.43;62.06
75401;BME280;63974;47.538;18.972;2023-04-06T04:51:12;100402.97;;;-0.45;61.96
75401;BME280;63974;47.538;18.972;2023-04-06T04:54:35;100410.28;;;-0.26;61.50
75401;BME280;63974;47.538;18.972;2023-04-06T04:57:38;100412.97;;;-0.15;61.62
75401;BME280;63974;47.538;18.972;2023-04-06T05:00:41;100408.88;;;-0.18;61.62
75401;BME280;63974;47.538;18.972;2023-04-06T05:03:45;100405.56;;;-0.32;62.31
75401;BME280;63974;47.538;18.972;2023-04-06T05:06:50;100412.25;;;-0.17;62.25
75401;BME280;63974;47.538;18.972;2023-04-06T05:09:54;100410.22;;;-0.12;62.19
75401;BME280;63974;47.538;18.972;2023-04-06T05:13:01;100406.66;;;-0.10;62.07
75401;BME280;63974;47.538;18.972;2023-04-06T05:16:05;100411.94;;;-0.13;61.83
75401;BME280;63974;47.538;18.972;2023-04-06T05:19:09;100415.44;;;0.11;60.19
75401;BME280;63974;47.538;18.972;2023-04-06T05:22:18;100405.78;;;0.41;58.73
75401;BME280;63974;47.538;18.972;2023-04-06T05:25:28;100404.88;;;0.42;59.48
75401;BME280;63974;47.538;18.972;2023-04-06T05:28:37;100407.00;;;0.60;58.85
75401;BME280;63974;47.538;18.972;2023-04-06T05:31:41;100407.09;;;0.59;59.63
75401;BME280;63974;47.538;18.972;2023-04-06T05:34:44;100404.94;;;0.40;59.06
75401;BME280;63974;47.538;18.972;2023-04-06T05:37:47;100405.97;;;0.25;59.89
75401;BME280;63974;47.538;18.972;2023-04-06T05:40:55;100412.44;;;0.43;60.08
75401;BME280;63974;47.538;18.972;2023-04-06T05:44:02;100414.47;;;0.38;60.69
75401;BME280;63974;47.538;18.972;2023-04-06T05:47:06;100407.94;;;0.34;61.45
75401;BME280;63974;47.538;18.972;2023-04-06T05:50:11;100404.84;;;0.54;60.62
75401;BME280;63974;47.538;18.972;2023-04-06T05:53:15;100402.63;;;0.50;60.20
75401;BME280;63974;47.538;18.972;2023-04-06T05:56:26;100400.44;;;0.69;59.52
75401;BME280;63974;47.538;18.972;2023-04-06T05:59:32;100401.09;;;0.96;58.75
75401;BME280;63974;47.538;18.972;2023-04-06T06:02:35;100400.06;;;1.11;58.51
75401;BME280;63974;47.538;18.972;2023-04-06T06:05:39;100403.63;;;1.44;57.70
75401;BME280;63974;47.538;18.972;2023-04-06T06:08:50;100395.94;;;1.68;57.04
75401;BME280;63974;47.538;18.972;2023-04-06T06:11:54;100399.78;;;1.97;56.84
75401;BME280;63974;47.538;18.972;2023-04-06T06:15:01;100396.22;;;2.21;55.59
75401;BME280;63974;47.538;18.972;2023-04-06T06:18:07;100395.59;;;1.96;55.17
75401;BME280;63974;47.538;18.972;2023-04-06T06:21:10;100386.66;;;2.12;54.67
75401;BME280;63974;47.538;18.972;2023-04-06T06:24:16;100383.31;;;2.22;55.03
75401;BME280;63974;47.538;18.972;2023-04-06T06:27:19;100386.47;;;2.59;53.82
75401;BME280;63974;47.538;18.972;2023-04-06T06:30:23;100389.28;;;2.45;54.27
75401;BME280;63974;47.538;18.972;2023-04-06T06:33:26;100385.19;;;2.20;53.89
75401;BME280;63974;47.538;18.972;2023-04-06T06:36:31;100385.19;;;2.42;53.41
75401;BME280;63974;47.538;18.972;2023-04-06T06:39:35;100388.84;;;2.62;52.35
75401;BME280;63974;47.538;18.972;2023-04-06T06:42:38;100381.84;;;2.75;52.66
75401;BME280;63974;47.538;18.972;2023-04-06T06:46:11;100385.59;;;3.24;52.00
75401;BME280;63974;47.538;18.972;2023-04-06T06:49:15;100386.53;;;3.23;50.80
75401;BME280;63974;47.538;18.972;2023-04-06T06:52:19;100388.84;;;3.26;49.78
75401;BME280;63974;47.538;18.972;2023-04-06T06:55:22;100382.28;;;3.44;49.04
75401;BME280;63974;47.538;18.972;2023-04-06T06:58:25;100382.22;;;3.66;48.54
75401;BME280;63974;47.538;18.972;2023-04-06T07:01:29;100366.78;;;3.98;48.50
75401;BME280;63974;47.538;18.972;2023-04-06T07:04:32;100369.72;;;3.93;47.83
75401;BME280;63974;47.538;18.972;2023-04-06T07:07:35;100369.38;;;4.28;46.72
75401;BME280;63974;47.538;18.972;2023-04-06T07:10:38;100371.88;;;4.38;46.18
75401;BME280;63974;47.538;18.972;2023-04-06T07:13:41;100371.00;;;4.28;45.78
75401;BME280;63974;47.538;18.972;2023-04-06T07:16:45;100368.31;;;4.60;45.64
75401;BME280;63974;47.538;18.972;2023-04-06T07:19:50;100375.03;;;4.51;44.34
75401;BME280;63974;47.538;18.972;2023-04-06T07:22:53;100375.50;;;4.56;44.34
75401;BME280;63974;47.538;18.972;2023-04-06T07:25:56;100372.50;;;4.91;44.58
75401;BME280;63974;47.538;18.972;2023-04-06T07:28:59;100366.69;;;4.89;44.04
75401;BME280;63974;47.538;18.972;2023-04-06T07:32:03;100361.38;;;4.81;43.74
75401;BME280;63974;47.538;18.972;2023-04-06T07:35:07;100362.22;;;5.00;42.37
75401;BME280;63974;47.538;18.972;2023-04-06T07:38:10;100360.59;;;4.99;42.35
75401;BME280;63974;47.538;18.972;2023-04-06T07:41:15;100355.91;;;5.33;41.98
75401;BME280;63974;47.538;18.972;2023-04-06T07:44:18;100357.09;;;5.00;42.27
75401;BME280;63974;47.538;18.972;2023-04-06T07:47:23;100349.16;;;5.32;41.27
75401;BME280;63974;47.538;18.972;2023-04-06T07:50:26;100348.75;;;5.84;41.24
75401;BME280;63974;47.538;18.972;2023-04-06T07:53:30;100345.06;;;6.15;40.23
75401;BME280;63974;47.538;18.972;2023-04-06T07:56:33;100350.41;;;5.85;40.49
75401;BME280;63974;47.538;18.972;2023-04-06T07:59:36;100344.56;;;5.64;39.94
75401;BME280;63974;47.538;18.972;2023-04-06T08:02:39;100347.41;;;5.80;40.37
75401;BME280;63974;47.538;18.972;2023-04-06T08:05:42;100344.41;;;5.94;41.07
75401;BME280;63974;47.538;18.972;2023-04-06T08:08:45;100335.31;;;5.99;39.96
75401;BME280;63974;47.538;18.972;2023-04-06T08:11:48;100336.25;;;6.08;40.34
75401;BME280;63974;47.538;18.972;2023-04-06T08:14:51;100334.00;;;6.32;40.36
75401;BME280;63974;47.538;18.972;2023-04-06T08:17:54;100328.44;;;6.36;38.21
75401;BME280;63974;47.538;18.972;2023-04-06T08:21:02;100330.03;;;6.47;38.35
75401;BME280;63974;47.538;18.972;2023-04-06T08:24:05;100329.16;;;6.29;38.17
75401;BME280;63974;47.538;18.972;2023-04-06T08:27:08;100324.03;;;6.82;37.68
75401;BME280;63974;47.538;18.972;2023-04-06T08:30:12;100324.50;;;6.68;37.39
75401;BME280;63974;47.538;18.972;2023-04-06T08:33:15;100316.50;;;6.71;36.20
75401;BME280;63974;47.538;18.972;2023-04-06T08:36:18;100308.63;;;6.90;36.66
75401;BME280;63974;47.538;18.972;2023-04-06T08:39:25;100321.97;;;6.23;34.99
75401;BME280;63974;47.538;18.972;2023-04-06T08:42:32;100317.22;;;6.28;34.92
75401;BME280;63974;47.538;18.972;2023-04-06T08:45:36;100320.75;;;6.27;36.21
75401;BME280;63974;47.538;18.972;2023-04-06T08:48:40;100320.75;;;6.80;36.03
75401;BME280;63974;47.538;18.972;2023-04-06T08:51:43;100320.47;;;6.56;35.60
75401;BME280;63974;47.538;18.972;2023-04-06T08:54:47;100326.03;;;6.35;36.08
75401;BME280;63974;47.538;18.972;2023-04-06T08:57:50;100324.00;;;6.29;36.26
75401;BME280;63974;47.538;18.972;2023-04-06T09:00:55;100319.03;;;6.45;37.00
75401;BME280;63974;47.538;18.972;2023-04-06T09:04:00;100320.50;;;6.20;35.66
75401;BME280;63974;47.538;18.972;2023-04-06T09:07:03;100311.50;;;6.34;36.13
75401;BME280;63974;47.538;18.972;2023-04-06T09:10:06;100320.44;;;6.30;33.93
75401;BME280;63974;47.538;18.972;2023-04-06T09:13:09;100332.63;;;6.37;34.65
75401;BME280;63974;47.538;18.972;2023-04-06T09:16:13;100321.72;;;6.53;35.00
75401;BME280;63974;47.538;18.972;2023-04-06T09:19:16;100318.69;;;6.30;35.62
75401;BME280;63974;47.538;18.972;2023-04-06T09:22:19;100320.88;;;6.61;34.97
75401;BME280;63974;47.538;18.972;2023-04-06T09:25:24;100317.16;;;6.73;34.67
75401;BME280;63974;47.538;18.972;2023-04-06T09:28:29;100320.34;;;6.58;34.78
75401;BME280;63974;47.538;18.972;2023-04-06T09:31:32;100307.44;;;6.31;35.70
75401;BME280;63974;47.538;18.972;2023-04-06T09:34:39;100297.53;;;7.25;34.49
75401;BME280;63974;47.538;18.972;2023-04-06T09:37:46;100305.78;;;7.28;34.40
75401;BME280;63974;47.538;18.972;2023-04-06T09:40:51;100307.16;;;6.88;34.99
75401;BME280;63974;47.538;18.972;2023-04-06T09:44:10;100297.25;;;6.30;36.95
75401;BME280;63974;47.538;18.972;2023-04-06T09:47:13;100292.88;;;7.11;36.17
75401;BME280;63974;47.538;18.972;2023-04-06T09:50:18;100301.97;;;6.70;36.04
75401;BME280;63974;47.538;18.972;2023-04-06T09:53:26;100303.63;;;6.89;35.07
75401;BME280;63974;47.538;18.972;2023-04-06T09:56:46;100299.63;;;6.77;34.81
75401;BME280;63974;47.538;18.972;2023-04-06T10:00:02;100300.97;;;6.98;36.22
75401;BME280;63974;47.538;18.972;2023-04-06T10:03:18;100293.50;;;6.78;34.51
75401;BME280;63974;47.538;18.972;2023-04-06T10:06:27;100283.78;;;7.07;34.02
75401;BME280;63974;47.538;18.972;2023-04-06T10:09:31;100288.63;;;6.92;34.82
75401;BME280;63974;47.538;18.972;2023-04-06T10:12:39;100280.88;;;7.19;33.92
75401;BME280;63974;47.538;18.972;2023-04-06T10:15:42;100272.94;;;7.03;33.72
75401;BME280;63974;47.538;18.972;2023-04-06T10:18:53;100267.00;;;7.20;34.65
75401;BME280;63974;47.538;18.972;2023-04-06T10:21:59;100258.25;;;7.82;33.51
75401;BME280;63974;47.538;18.972;2023-04-06T10:25:08;100247.97;;;7.64;33.72
75401;BME280;63974;47.538;18.972;2023-04-06T10:28:12;100238.22;;;8.09;33.35
75401;BME280;63974;47.538;18.972;2023-04-06T10:31:15;100246.75;;;8.02;32.94
75401;BME280;63974;47.538;18.972;2023-04-06T10:34:18;100239.25;;;8.16;33.76
75401;BME280;63974;47.538;18.972;2023-04-06T10:37:21;100235.09;;;8.23;32.32
75401;BME280;63974;47.538;18.972;2023-04-06T10:40:26;100229.94;;;7.98;32.66
75401;BME280;63974;47.538;18.972;2023-04-06T10:43:33;100238.44;;;7.90;33.14
75401;BME280;63974;47.538;18.972;2023-04-06T10:46:37;100232.97;;;8.19;33.08
75401;BME280;63974;47.538;18.972;2023-04-06T10:49:40;100225.03;;;7.87;32.67
75401;BME280;63974;47.538;18.972;2023-04-06T10:52:47;100226.41;;;8.07;32.64
75401;BME280;63974;47.538;18.972;2023-04-06T10:56:00;100221.03;;;8.00;32.61
75401;BME280;63974;47.538;18.972;2023-04-06T10:59:05;100217.59;;;8.17;31.97
75401;BME280;63974;47.538;18.972;2023-04-06T11:02:08;100204.38;;;7.95;32.62
75401;BME280;63974;47.538;18.972;2023-04-06T11:05:21;100209.59;;;8.36;31.32
75401;BME280;63974;47.538;18.972;2023-04-06T11:08:29;100206.03;;;8.04;30.77
75401;BME280;63974;47.538;18.972;2023-04-06T11:11:33;100199.06;;;8.30;31.11
75401;BME280;63974;47.538;18.972;2023-04-06T11:14:41;100190.72;;;8.52;30.22
75401;BME280;63974;47.538;18.972;2023-04-06T11:17:44;100190.59;;;8.61;31.88
75401;BME280;63974;47.538;18.972;2023-04-06T11:20:48;100189.63;;;8.70;30.84
75401;BME280;63974;47.538;18.972;2023-04-06T11:23:51;100184.97;;;8.89;31.74
75401;BME280;63974;47.538;18.972;2023-04-06T11:26:56;100175.72;;;8.87;30.12
75401;BME280;63974;47.538;18.972;2023-04-06T11:30:00;100166.69;;;9.23;30.16
75401;BME280;63974;47.538;18.972;2023-04-06T11:33:04;100175.91;;;8.77;30.66
75401;BME280;63974;47.538;18.972;2023-04-06T11:36:07;100170.91;;;8.92;30.91
75401;BME280;63974;47.538;18.972;2023-04-06T11:39:13;100157.47;;;9.20;30.30
75401;BME280;63974;47.538;18.972;2023-04-06T11:42:27;100180.91;;;8.79;30.97
75401;BME280;63974;47.538;18.972;2023-04-06T11:45:41;100159.22;;;8.64;31.51
75401;BME280;63974;47.538;18.972;2023-04-06T11:48:45;100156.84;;;8.94;31.07
75401;BME280;63974;47.538;18.972;2023-04-06T11:51:48;100146.28;;;9.28;30.84
75401;BME280;63974;47.538;18.972;2023-04-06T11:54:52;100161.16;;;9.34;29.63
75401;BME280;63974;47.538;18.972;2023-04-06T11:57:56;100161.25;;;9.72;28.66
75401;BME280;63974;47.538;18.972;2023-04-06T12:01:05;100142.34;;;9.56;29.76
75401;BME280;63974;47.538;18.972;2023-04-06T12:04:08;100152.09;;;9.30;29.87
75401;BME280;63974;47.538;18.972;2023-04-06T12:07:10;100138.41;;;10.22;29.64
75401;BME280;63974;47.538;18.972;2023-04-06T12:10:15;100147.03;;;9.52;30.39
75401;BME280;63974;47.538;18.972;2023-04-06T12:13:18;100153.25;;;9.43;30.29
75401;BME280;63974;47.538;18.972;2023-04-06T12:16:21;100152.88;;;9.54;30.47
75401;BME280;63974;47.538;18.972;2023-04-06T12:19:24;100131.19;;;10.02;29.75
75401;BME280;63974;47.538;18.972;2023-04-06T12:22:28;100138.09;;;9.71;28.78
75401;BME280;63974;47.538;18.972;2023-04-06T12:25:31;100124.53;;;10.07;27.76
75401;BME280;63974;47.538;18.972;2023-04-06T12:28:34;100144.38;;;9.84;29.07
75401;BME280;63974;47.538;18.972;2023-04-06T12:31:37;100132.13;;;9.54;30.99
75401;BME280;63974;47.538;18.972;2023-04-06T12:34:47;100129.25;;;9.41;30.50
75401;BME280;63974;47.538;18.972;2023-04-06T12:37:50;100124.59;;;9.29;30.66
75401;BME280;63974;47.538;18.972;2023-04-06T12:40:53;100111.72;;;9.51;29.80
75401;BME280;63974;47.538;18.972;2023-04-06T12:43:56;100117.75;;;9.52;30.45
75401;BME280;63974;47.538;18.972;2023-04-06T12:46:59;100129.66;;;9.69;30.29
75401;BME280;63974;47.538;18.972;2023-04-06T12:50:02;100120.81;;;10.02;30.28
75401;BME280;63974;47.538;18.972;2023-04-06T12:53:05;100123.81;;;9.75;31.07
75401;BME280;63974;47.538;18.972;2023-04-06T12:56:16;100117.31;;;9.32;30.66
75401;BME280;63974;47.538;18.972;2023-04-06T12:59:19;100126.06;;;9.15;31.41
75401;BME280;63974;47.538;18.972;2023-04-06T13:02:24;100106.78;;;9.26;31.04
75401;BME280;63974;47.538;18.972;2023-04-06T13:05:27;100122.81;;;8.81;30.96
75401;BME280;63974;47.538;18.972;2023-04-06T13:08:32;100112.00;;;8.70;30.31
75401;BME280;63974;47.538;18.972;2023-04-06T13:11:35;100103.41;;;9.01;30.58
75401;BME280;63974;47.538;18.972;2023-04-06T13:14:38;100105.31;;;9.15;30.35
75401;BME280;63974;47.538;18.972;2023-04-06T13:17:42;100104.88;;;8.72;30.15
75401;BME280;63974;47.538;18.972;2023-04-06T13:20:46;100094.19;;;9.15;30.48
75401;BME280;63974;47.538;18.972;2023-04-06T13:23:51;100099.34;;;9.15;31.58
75401;BME280;63974;47.538;18.972;2023-04-06T13:26:53;100096.44;;;9.26;29.97
75401;BME280;63974;47.538;18.972;2023-04-06T13:29:57;100110.53;;;8.91;30.41
75401;BME280;63974;47.538;18.972;2023-04-06T13:33:00;100102.59;;;9.17;30.75
75401;BME280;63974;47.538;18.972;2023-04-06T13:36:03;100096.28;;;9.03;29.80
75401;BME280;63974;47.538;18.972;2023-04-06T13:39:09;100106.97;;;8.92;29.92
75401;BME280;63974;47.538;18.972;2023-04-06T13:42:12;100098.53;;;9.22;29.91
75401;BME280;63974;47.538;18.972;2023-04-06T13:45:15;100101.06;;;9.46;29.14
75401;BME280;63974;47.538;18.972;2023-04-06T13:48:18;100087.97;;;9.40;30.27
75401;BME280;63974;47.538;18.972;2023-04-06T13:51:21;100100.28;;;9.22;29.42
75401;BME280;63974;47.538;18.972;2023-04-06T13:54:26;100100.63;;;9.11;29.82
75401;BME280;63974;47.538;18.972;2023-04-06T13:57:28;100097.28;;;9.65;29.95
75401;BME280;63974;47.538;18.972;2023-04-06T14:00:32;100094.09;;;9.47;30.12
75401;BME280;63974;47.538;18.972;2023-04-06T14:03:36;100094.66;;;9.02;28.58
75401;BME280;63974;47.538;18.972;2023-04-06T14:06:39;100068.06;;;9.32;28.72
75401;BME280;63974;47.538;18.972;2023-04-06T14:09:42;100076.44;;;9.50;28.63
75401;BME280;63974;47.538;18.972;2023-04-06T14:12:44;100080.19;;;9.78;28.41
75401;BME280;63974;47.538;18.972;2023-04-06T14:15:52;100075.41;;;9.67;28.20
75401;BME280;63974;47.538;18.972;2023-04-06T14:18:55;100065.75;;;10.45;28.60
75401;BME280;63974;47.538;18.972;2023-04-06T14:22:01;100059.53;;;10.54;28.79
75401;BME280;63974;47.538;18.972;2023-04-06T14:25:05;100068.28;;;10.00;28.20
75401;BME280;63974;47.538;18.972;2023-04-06T14:28:07;100067.81;;;9.96;27.84
75401;BME280;63974;47.538;18.972;2023-04-06T14:31:13;100068.66;;;9.89;27.68
75401;BME280;63974;47.538;18.972;2023-04-06T14:34:16;100063.34;;;9.82;27.55
75401;BME280;63974;47.538;18.972;2023-04-06T14:37:19;100061.25;;;9.78;28.52
75401;BME280;63974;47.538;18.972;2023-04-06T14:40:25;100077.56;;;9.48;29.90
75401;BME280;63974;47.538;18.972;2023-04-06T14:43:28;100075.91;;;9.63;29.11
75401;BME280;63974;47.538;18.972;2023-04-06T14:46:31;100080.97;;;9.56;28.71
75401;BME280;63974;47.538;18.972;2023-04-06T14:49:34;100079.47;;;9.62;28.59
75401;BME280;63974;47.538;18.972;2023-04-06T14:52:37;100072.22;;;9.49;28.97
75401;BME280;63974;47.538;18.972;2023-04-06T14:55:40;100066.41;;;9.47;29.82
75401;BME280;63974;47.538;18.972;2023-04-06T14:58:43;100073.22;;;9.40;30.49
75401;BME280;63974;47.538;18.972;2023-04-06T15:01:46;100081.72;;;9.10;30.26
75401;BME280;63974;47.538;18.972;2023-04-06T15:04:49;100082.19;;;9.14;31.09
75401;BME280;63974;47.538;18.972;2023-04-06T15:07:55;100076.38;;;9.04;32.05
75401;BME280;63974;47.538;18.972;2023-04-06T15:10:59;100082.06;;;8.76;30.90
75401;BME280;63974;47.538;18.972;2023-04-06T15:14:02;100085.63;;;8.75;31.69
75401;BME280;63974;47.538;18.972;2023-04-06T15:17:04;100078.50;;;8.61;32.30
75401;BME280;63974;47.538;18.972;2023-04-06T15:20:17;100076.41;;;8.72;31.88
75401;BME280;63974;47.538;18.972;2023-04-06T15:23:20;100085.94;;;8.64;32.26
75401;BME280;63974;47.538;18.972;2023-04-06T15:26:22;100080.59;;;8.57;32.92
75401;BME280;63974;47.538;18.972;2023-04-06T15:29:25;100056.97;;;8.28;32.52
75401;BME280;63974;47.538;18.972;2023-04-06T15:32:28;100086.88;;;8.23;32.12
75401;BME280;63974;47.538;18.972;2023-04-06T15:35:31;100087.63;;;8.15;31.94
75401;BME280;63974;47.538;18.972;2023-04-06T15:38:36;100103.66;;;8.19;32.18
75401;BME280;63974;47.538;18.972;2023-04-06T15:41:38;100096.84;;;8.18;32.21
75401;BME280;63974;47.538;18.972;2023-04-06T15:44:42;100089.72;;;8.12;32.20
75401;BME280;63974;47.538;18.972;2023-04-06T15:47:44;100091.38;;;8.21;32.77
75401;BME280;63974;47.538;18.972;2023-04-06T15:50:50;100099.41;;;8.10;33.78
75401;BME280;63974;47.538;18.972;2023-04-06T15:53:53;100097.00;;;8.16;33.64
75401;BME280;63974;47.538;18.972;2023-04-06T15:56:56;100109.69;;;8.27;33.69
75401;BME280;63974;47.538;18.972;2023-04-06T16:00:00;100100.78;;;8.22;33.50
75401;BME280;63974;47.538;18.972;2023-04-06T16:03:03;100107.31;;;8.08;33.63
75401;BME280;63974;47.538;18.972;2023-04-06T16:06:06;100098.56;;;8.01;33.73